createdAt,value
2018-09-13T00:02:20.209Z,12.80
2018-09-13T00:04:49.488Z,12.80
2018-09-13T00:07:18.534Z,12.80
2018-09-13T00:09:48.310Z,12.80
2018-09-13T00:12:18.021Z,12.80
2018-09-13T00:14:47.069Z,12.80
2018-09-13T00:17:16.055Z,12.80
2018-09-13T00:19:45.085Z,12.70
2018-09-13T00:22:14.357Z,12.70
2018-09-13T00:24:43.956Z,12.70
2018-09-13T00:27:13.094Z,12.70
2018-09-13T00:29:42.565Z,12.70
2018-09-13T00:32:11.547Z,12.70
2018-09-13T00:34:40.533Z,12.60
2018-09-13T00:37:09.487Z,12.60
2018-09-13T00:39:38.385Z,12.60
2018-09-13T00:42:07.518Z,12.60
2018-09-13T00:44:36.422Z,12.60
2018-09-13T00:47:09.826Z,12.60
2018-09-13T00:49:38.720Z,12.60
2018-09-13T00:52:07.770Z,12.60
2018-09-13T00:54:36.961Z,12.50
2018-09-13T00:57:05.985Z,12.50
2018-09-13T00:59:35.168Z,12.50
2018-09-13T01:02:04.357Z,12.50
2018-09-13T01:04:33.269Z,12.50
2018-09-13T01:07:02.353Z,12.50
2018-09-13T01:09:31.401Z,12.50
2018-09-13T01:12:00.609Z,12.50
2018-09-13T01:14:29.713Z,12.40
2018-09-13T01:16:58.949Z,12.40
2018-09-13T01:19:28.081Z,12.40
2018-09-13T01:21:57.300Z,12.40
2018-09-13T01:24:26.479Z,12.40
2018-09-13T01:26:55.449Z,12.40
2018-09-13T01:29:24.541Z,12.40
2018-09-13T01:31:54.073Z,12.40
2018-09-13T01:34:23.327Z,12.40
2018-09-13T01:36:52.453Z,12.40
2018-09-13T01:39:21.557Z,12.40
2018-09-13T01:41:50.930Z,12.30
2018-09-13T01:44:20.069Z,12.30
2018-09-13T01:46:49.432Z,12.30
2018-09-13T01:49:18.521Z,12.30
2018-09-13T01:51:48.278Z,12.30
2018-09-13T01:54:17.274Z,12.30
2018-09-13T01:56:46.597Z,12.30
2018-09-13T01:59:15.788Z,12.30
2018-09-13T02:01:45.206Z,12.30
2018-09-13T02:04:14.506Z,12.30
2018-09-13T02:06:43.753Z,12.30
2018-09-13T02:09:12.826Z,12.30
2018-09-13T02:11:42.123Z,12.20
2018-09-13T02:14:11.370Z,12.20
2018-09-13T02:16:40.321Z,12.20
2018-09-13T02:19:09.293Z,12.20
2018-09-13T02:21:38.549Z,12.20
2018-09-13T02:24:07.871Z,12.20
2018-09-13T02:26:37.253Z,12.20
2018-09-13T02:29:06.197Z,12.10
2018-09-13T02:31:35.300Z,12.10
2018-09-13T02:34:04.809Z,12.10
2018-09-13T02:36:33.722Z,12.10
2018-09-13T02:39:04.031Z,12.10
2018-09-13T02:41:33.713Z,12.10
2018-09-13T02:44:03.493Z,12.00
2018-09-13T02:46:32.966Z,12.00
2018-09-13T02:49:02.325Z,12.00
2018-09-13T02:51:31.669Z,12.00
2018-09-13T02:54:00.842Z,12.00
2018-09-13T02:56:30.057Z,12.00
2018-09-13T02:58:59.137Z,12.00
2018-09-13T03:01:28.694Z,12.00
2018-09-13T03:03:57.553Z,12.00
2018-09-13T03:06:26.661Z,12.00
2018-09-13T03:08:55.970Z,12.00
2018-09-13T03:11:25.265Z,12.00
2018-09-13T03:13:54.171Z,11.90
2018-09-13T03:16:23.311Z,12.00
2018-09-13T03:18:52.490Z,12.00
2018-09-13T03:21:22.194Z,12.00
2018-09-13T03:23:51.233Z,11.90
2018-09-13T03:26:20.396Z,11.90
2018-09-13T03:28:49.548Z,11.90
2018-09-13T03:31:18.702Z,11.90
2018-09-13T03:33:47.725Z,11.80
2018-09-13T03:36:16.752Z,11.80
2018-09-13T03:38:46.109Z,11.80
2018-09-13T03:41:15.375Z,11.80
2018-09-13T03:43:44.330Z,11.80
2018-09-13T03:46:13.458Z,11.80
2018-09-13T03:48:42.807Z,11.80
2018-09-13T03:51:11.811Z,11.70
2018-09-13T03:53:40.911Z,11.70
2018-09-13T03:56:09.812Z,11.70
2018-09-13T03:58:38.839Z,11.70
2018-09-13T04:01:08.557Z,11.70
2018-09-13T04:03:37.488Z,11.70
2018-09-13T04:06:06.642Z,11.70
2018-09-13T04:08:35.993Z,11.60
2018-09-13T04:11:05.413Z,11.60
2018-09-13T04:13:34.516Z,11.60
2018-09-13T04:16:04.090Z,11.60
2018-09-13T04:18:33.257Z,11.60
2018-09-13T04:21:02.514Z,11.60
2018-09-13T04:23:31.939Z,11.60
2018-09-13T04:26:01.121Z,11.60
2018-09-13T04:28:30.201Z,11.60
2018-09-13T04:30:59.235Z,11.60
2018-09-13T04:33:28.245Z,11.60
2018-09-13T04:35:57.568Z,11.50
2018-09-13T04:38:26.850Z,11.50
2018-09-13T04:40:56.097Z,11.50
2018-09-13T04:43:25.098Z,11.50
2018-09-13T04:45:54.314Z,11.50
2018-09-13T04:48:23.258Z,11.50
2018-09-13T04:50:52.712Z,11.50
2018-09-13T04:53:21.727Z,11.50
2018-09-13T04:55:50.953Z,11.50
2018-09-13T04:58:20.006Z,11.50
2018-09-13T05:00:49.121Z,11.50
2018-09-13T05:03:18.619Z,11.50
2018-09-13T05:05:47.484Z,11.50
2018-09-13T05:08:19.455Z,11.50
2018-09-13T05:10:48.853Z,11.50
2018-09-13T05:13:17.949Z,11.50
2018-09-13T05:15:47.262Z,11.50
2018-09-13T05:18:16.249Z,11.50
2018-09-13T05:20:45.334Z,11.50
2018-09-13T05:23:14.524Z,11.50
2018-09-13T05:25:43.538Z,11.50
2018-09-13T05:28:12.777Z,11.50
2018-09-13T05:30:41.834Z,11.60
2018-09-13T05:33:10.834Z,11.60
2018-09-13T05:35:39.837Z,11.60
2018-09-13T05:38:08.862Z,11.60
2018-09-13T05:40:38.205Z,11.60
2018-09-13T05:43:07.428Z,11.60
2018-09-13T05:45:36.692Z,11.60
2018-09-13T05:48:05.671Z,11.60
2018-09-13T05:50:34.709Z,11.60
2018-09-13T05:53:03.932Z,11.70
2018-09-13T05:55:33.553Z,11.70
2018-09-13T05:58:02.695Z,11.70
2018-09-13T06:00:31.829Z,11.70
2018-09-13T06:03:00.894Z,11.70
2018-09-13T06:05:29.898Z,11.70
2018-09-13T06:07:59.038Z,11.70
2018-09-13T06:10:28.276Z,11.80
2018-09-13T06:12:57.823Z,11.80
2018-09-13T06:15:27.025Z,11.80
2018-09-13T06:17:56.103Z,11.80
2018-09-13T06:20:24.995Z,11.90
2018-09-13T06:22:54.119Z,11.90
2018-09-13T06:25:23.113Z,11.90
2018-09-13T06:27:52.427Z,12.00
2018-09-13T06:30:21.633Z,12.00
2018-09-13T06:32:50.693Z,12.00
2018-09-13T06:35:19.685Z,12.00
2018-09-13T06:37:48.918Z,12.00
2018-09-13T06:40:17.959Z,12.00
2018-09-13T06:42:47.248Z,12.10
2018-09-13T06:45:16.485Z,12.10
2018-09-13T06:47:45.621Z,12.20
2018-09-13T06:50:14.945Z,12.20
2018-09-13T06:52:44.110Z,12.20
2018-09-13T06:55:13.842Z,12.20
2018-09-13T06:57:43.375Z,12.20
2018-09-13T07:00:12.481Z,12.30
2018-09-13T07:02:41.766Z,12.30
2018-09-13T07:05:11.013Z,12.30
2018-09-13T07:07:40.312Z,12.40
2018-09-13T07:10:09.280Z,12.40
2018-09-13T07:12:38.429Z,12.40
2018-09-13T07:15:07.616Z,12.40
2018-09-13T07:17:36.890Z,12.50
2018-09-13T07:20:05.894Z,12.50
2018-09-13T07:22:35.331Z,12.50
2018-09-13T07:25:04.646Z,12.60
2018-09-13T07:27:33.816Z,12.60
2018-09-13T07:30:03.457Z,12.70
2018-09-13T07:32:32.682Z,12.80
2018-09-13T07:35:02.003Z,12.80
2018-09-13T07:37:31.060Z,12.80
2018-09-13T07:40:00.429Z,12.90
2018-09-13T07:42:29.562Z,13.00
2018-09-13T07:44:58.715Z,13.00
2018-09-13T07:47:27.881Z,13.00
2018-09-13T07:49:56.916Z,13.00
2018-09-13T07:52:25.970Z,13.10
2018-09-13T07:54:55.331Z,13.10
2018-09-13T07:57:24.493Z,13.20
2018-09-13T07:59:53.764Z,13.30
2018-09-13T08:02:23.237Z,13.40
2018-09-13T08:04:52.473Z,13.40
2018-09-13T08:07:21.689Z,13.50
2018-09-13T08:09:51.034Z,13.60
2018-09-13T08:12:20.591Z,13.70
2018-09-13T08:14:49.762Z,13.80
2018-09-13T08:17:18.839Z,14.10
2018-09-13T08:19:47.795Z,14.90
2018-09-13T08:22:17.897Z,19.40
2018-09-13T08:24:47.251Z,23.60
2018-09-13T08:27:16.601Z,27.10
2018-09-13T08:29:45.723Z,29.90
2018-09-13T08:32:14.981Z,32.00
2018-09-13T08:34:44.040Z,33.50
2018-09-13T08:37:13.470Z,34.90
2018-09-13T08:39:42.621Z,36.30
2018-09-13T08:42:12.157Z,37.30
2018-09-13T08:44:41.251Z,36.80
2018-09-13T08:47:10.358Z,37.70
2018-09-13T08:49:39.381Z,38.60
2018-09-13T08:52:09.380Z,39.20
2018-09-13T08:54:38.254Z,40.10
2018-09-13T08:57:07.397Z,40.80
2018-09-13T08:59:36.509Z,41.00
2018-09-13T09:02:05.732Z,41.10
2018-09-13T09:04:35.033Z,41.80
2018-09-13T09:07:04.449Z,42.30
2018-09-13T09:09:33.757Z,43.00
2018-09-13T09:12:02.991Z,44.00
2018-09-13T09:14:32.341Z,43.80
2018-09-13T09:17:01.493Z,44.70
2018-09-13T09:19:30.529Z,44.70
2018-09-13T09:21:59.828Z,45.40
2018-09-13T09:24:29.356Z,43.40
2018-09-13T09:26:58.387Z,44.60
2018-09-13T09:29:27.418Z,45.60
2018-09-13T09:31:56.430Z,46.10
2018-09-13T09:34:25.959Z,46.00
2018-09-13T09:36:55.185Z,46.10
2018-09-13T09:39:24.268Z,47.00
2018-09-13T09:41:53.468Z,47.10
2018-09-13T09:44:22.729Z,47.20
2018-09-13T09:46:51.753Z,47.50
2018-09-13T09:49:20.773Z,47.60
2018-09-13T09:51:50.050Z,47.30
2018-09-13T09:54:19.171Z,47.90
2018-09-13T09:56:48.469Z,47.90
2018-09-13T09:59:17.584Z,47.50
2018-09-13T10:01:51.945Z,47.70
2018-09-13T10:04:21.353Z,47.40
2018-09-13T10:06:50.893Z,47.70
2018-09-13T10:09:19.930Z,47.20
2018-09-13T10:11:49.245Z,47.30
2018-09-13T10:14:18.707Z,47.00
2018-09-13T10:16:53.023Z,47.50
2018-09-13T10:19:27.225Z,47.80
2018-09-13T10:22:01.608Z,47.70
2018-09-13T10:24:35.852Z,47.10
2018-09-13T10:27:10.253Z,46.80
2018-09-13T10:29:44.701Z,45.90
2018-09-13T10:32:19.901Z,44.70
2018-09-13T10:34:54.429Z,43.80
2018-09-13T10:37:28.626Z,43.50
2018-09-13T10:40:03.802Z,43.90
2018-09-13T10:42:38.237Z,43.70
2018-09-13T10:45:12.555Z,43.30
2018-09-13T10:47:56.478Z,42.80
2018-09-13T10:50:23.488Z,43.00
2018-09-13T10:53:03.666Z,42.70
2018-09-13T10:55:32.899Z,42.70
2018-09-13T10:58:02.277Z,42.70
2018-09-13T11:00:31.416Z,42.40
2018-09-13T11:03:00.622Z,41.80
2018-09-13T11:05:29.602Z,41.50
2018-09-13T11:07:58.797Z,41.30
2018-09-13T11:10:27.835Z,40.60
2018-09-13T11:15:03.677Z,40.20
2018-09-13T11:17:32.742Z,40.10
2018-09-13T11:20:02.028Z,39.40
2018-09-13T11:22:31.017Z,39.10
2018-09-13T11:25:00.071Z,38.80
2018-09-13T11:27:29.047Z,38.20
2018-09-13T11:29:58.240Z,37.80
2018-09-13T11:32:27.193Z,37.10
2018-09-13T11:34:56.216Z,36.60
2018-09-13T11:37:25.369Z,36.00
2018-09-13T11:39:54.733Z,35.80
2018-09-13T11:42:23.827Z,35.70
2018-09-13T11:44:52.969Z,35.10
2018-09-13T11:47:22.160Z,34.80
2018-09-13T11:49:51.076Z,34.30
2018-09-13T11:52:20.677Z,33.20
2018-09-13T11:54:49.836Z,32.10
2018-09-13T11:57:18.978Z,31.20
2018-09-13T11:59:48.415Z,30.70
2018-09-13T12:02:17.401Z,30.10
2018-09-13T12:04:46.673Z,29.60
2018-09-13T12:07:15.813Z,29.20
2018-09-13T12:09:45.025Z,28.70
2018-09-13T12:12:14.101Z,28.20
2018-09-13T12:14:43.274Z,27.80
2018-09-13T12:17:12.285Z,27.50
2018-09-13T12:19:41.153Z,27.20
2018-09-13T12:22:10.296Z,26.90
2018-09-13T12:24:39.333Z,26.60
2018-09-13T12:27:08.560Z,26.50
2018-09-13T12:29:37.515Z,26.30
2018-09-13T12:32:06.466Z,26.20
2018-09-13T12:34:35.809Z,26.00
2018-09-13T12:37:05.421Z,25.80
2018-09-13T12:39:34.373Z,25.70
2018-09-13T12:42:03.701Z,25.50
2018-09-13T12:44:32.797Z,25.30
2018-09-13T12:47:01.776Z,25.20
2018-09-13T12:49:30.900Z,25.10
2018-09-13T12:52:00.095Z,25.00
2018-09-13T12:54:29.393Z,24.90
2018-09-13T12:56:59.139Z,24.90
2018-09-13T12:59:29.197Z,24.90
2018-09-13T13:01:58.357Z,24.80
2018-09-13T13:04:27.532Z,24.70
2018-09-13T13:06:56.823Z,24.60
2018-09-13T13:09:26.510Z,24.50
2018-09-13T13:11:55.571Z,24.30
2018-09-13T13:14:24.649Z,24.20
2018-09-13T13:16:54.004Z,24.00
2018-09-13T13:19:23.287Z,24.10
2018-09-13T13:21:52.611Z,24.00
2018-09-13T13:24:21.543Z,23.90
2018-09-13T13:26:50.858Z,23.90
2018-09-13T13:29:20.082Z,23.70
2018-09-13T13:31:49.094Z,23.60
2018-09-13T13:34:18.117Z,23.60
2018-09-13T13:36:47.235Z,23.50
2018-09-13T13:39:16.574Z,23.40
2018-09-13T13:41:45.653Z,23.30
2018-09-13T13:44:15.066Z,23.20
2018-09-13T13:46:44.024Z,23.10
2018-09-13T13:49:13.267Z,23.10
2018-09-13T13:51:42.886Z,23.10
2018-09-13T13:54:12.053Z,23.00
2018-09-13T13:56:41.528Z,22.90
2018-09-13T13:59:10.844Z,22.80
2018-09-13T14:01:40.133Z,22.70
2018-09-13T14:04:09.444Z,22.70
2018-09-13T14:06:38.726Z,22.60
2018-09-13T14:09:11.733Z,22.50
2018-09-13T14:11:41.002Z,22.40
2018-09-13T14:14:10.464Z,22.30
2018-09-13T14:16:39.786Z,22.20
2018-09-13T14:19:08.898Z,22.00
2018-09-13T14:21:38.162Z,21.90
2018-09-13T14:24:07.322Z,21.80
2018-09-13T14:26:36.509Z,21.70
2018-09-13T14:29:05.552Z,21.70
2018-09-13T14:31:34.631Z,21.60
2018-09-13T14:34:04.955Z,21.50
2018-09-13T14:36:34.435Z,21.30
2018-09-13T14:39:04.299Z,21.30
2018-09-13T14:41:34.378Z,21.20
2018-09-13T14:44:03.994Z,21.10
2018-09-13T14:46:33.170Z,21.00
2018-09-13T14:49:02.448Z,21.00
2018-09-13T14:51:31.682Z,20.90
2018-09-13T14:54:00.776Z,20.90
2018-09-13T14:56:30.233Z,20.80
2018-09-13T14:58:59.489Z,20.70
2018-09-13T15:01:28.677Z,20.60
2018-09-13T15:03:58.097Z,20.50
2018-09-13T15:06:27.231Z,20.40
2018-09-13T15:08:56.105Z,20.30
2018-09-13T15:11:25.219Z,20.20
2018-09-13T15:13:54.087Z,20.10
2018-09-13T15:16:23.139Z,20.10
2018-09-13T15:18:52.233Z,20.00
2018-09-13T15:21:21.872Z,19.90
2018-09-13T15:23:51.698Z,19.80
2018-09-13T15:26:20.726Z,19.70
2018-09-13T15:28:49.726Z,19.70
2018-09-13T15:31:18.594Z,19.60
2018-09-13T15:33:47.716Z,19.60
2018-09-13T15:36:16.870Z,19.50
2018-09-13T15:38:45.909Z,19.40
2018-09-13T15:41:15.014Z,19.30
2018-09-13T15:43:44.261Z,19.30
2018-09-13T15:46:13.265Z,19.20
2018-09-13T15:48:42.330Z,19.20
2018-09-13T15:51:11.647Z,19.10
2018-09-13T15:53:41.228Z,19.00
2018-09-13T15:56:10.277Z,19.00
2018-09-13T15:58:40.474Z,19.00
2018-09-13T16:01:10.000Z,18.90
2018-09-13T16:03:39.377Z,18.90
2018-09-13T16:06:08.605Z,18.90
2018-09-13T16:08:37.538Z,18.80
2018-09-13T16:11:06.702Z,18.70
2018-09-13T16:13:36.193Z,18.70
2018-09-13T16:16:05.202Z,18.60
2018-09-13T16:18:34.626Z,18.50
2018-09-13T16:21:03.746Z,18.50
2018-09-13T16:23:32.785Z,18.40
2018-09-13T16:26:01.852Z,18.40
2018-09-13T16:28:31.307Z,18.30
2018-09-13T16:31:00.306Z,18.20
2018-09-13T16:33:29.534Z,18.20
2018-09-13T16:36:01.434Z,18.20
2018-09-13T16:38:35.611Z,18.10
2018-09-13T16:41:10.136Z,18.00
2018-09-13T16:43:44.470Z,18.00
2018-09-13T16:46:19.416Z,18.00
2018-09-13T16:48:48.369Z,17.90
2018-09-13T16:51:17.531Z,17.80
2018-09-13T16:53:46.993Z,17.80
2018-09-13T16:56:16.089Z,17.80
2018-09-13T16:58:45.186Z,17.70
2018-09-13T17:01:14.406Z,17.70
2018-09-13T17:03:43.502Z,17.60
2018-09-13T17:06:13.318Z,17.60
2018-09-13T17:08:42.235Z,17.50
2018-09-13T17:11:11.817Z,17.50
2018-09-13T17:13:40.989Z,17.40
2018-09-13T17:16:10.869Z,17.40
2018-09-13T17:18:39.947Z,17.30
2018-09-13T17:21:09.255Z,17.30
2018-09-13T17:23:38.369Z,17.20
2018-09-13T17:26:07.494Z,17.20
2018-09-13T17:28:37.650Z,17.10
2018-09-13T17:31:07.376Z,17.00
2018-09-13T17:33:37.336Z,17.00
2018-09-13T17:36:06.497Z,17.00
2018-09-13T17:38:35.687Z,16.90
2018-09-13T17:41:04.814Z,16.90
2018-09-13T17:43:33.674Z,16.90
2018-09-13T17:46:03.011Z,16.80
2018-09-13T17:48:32.131Z,16.80
2018-09-13T17:51:01.298Z,16.70
2018-09-13T17:53:30.357Z,16.60
2018-09-13T17:56:00.161Z,16.60
2018-09-13T17:58:29.567Z,16.60
2018-09-13T18:00:58.714Z,16.50
2018-09-13T18:03:27.913Z,16.50
2018-09-13T18:05:57.427Z,16.40
2018-09-13T18:08:26.510Z,16.40
2018-09-13T18:10:57.659Z,16.40
2018-09-13T18:13:26.977Z,16.30
2018-09-13T18:15:56.529Z,16.20
2018-09-13T18:18:25.642Z,16.20
2018-09-13T18:20:55.483Z,16.20
2018-09-13T18:23:25.076Z,16.10
2018-09-13T18:25:54.323Z,16.10
2018-09-13T18:28:23.634Z,16.10
2018-09-13T18:30:52.856Z,16.10
2018-09-13T18:33:21.822Z,16.10
2018-09-13T18:35:51.111Z,16.00
2018-09-13T18:38:20.255Z,16.00
2018-09-13T18:40:49.662Z,15.90
2018-09-13T18:43:18.984Z,15.90
2018-09-13T18:45:48.866Z,15.90
2018-09-13T18:48:18.316Z,15.80
2018-09-13T18:50:47.546Z,15.80
2018-09-13T18:53:17.385Z,15.80
2018-09-13T18:55:47.236Z,15.80
2018-09-13T18:58:18.605Z,15.70
2018-09-13T19:00:47.734Z,15.70
2018-09-13T19:03:17.177Z,15.60
2018-09-13T19:05:46.488Z,15.60
2018-09-13T19:08:15.887Z,15.60
2018-09-13T19:10:45.493Z,15.50
2018-09-13T19:13:14.481Z,15.50
2018-09-13T19:15:43.832Z,15.50
2018-09-13T19:18:13.277Z,15.40
2018-09-13T19:20:42.429Z,15.40
2018-09-13T19:23:11.695Z,15.40
2018-09-13T19:25:40.926Z,15.30
2018-09-13T19:28:09.914Z,15.30
2018-09-13T19:30:38.876Z,15.30
2018-09-13T19:33:08.928Z,15.30
2018-09-13T19:35:38.735Z,15.30
2018-09-13T19:38:08.065Z,15.20
2018-09-13T19:40:37.441Z,15.20
2018-09-13T19:43:06.733Z,15.20
2018-09-13T19:45:36.179Z,15.20
2018-09-13T19:48:05.554Z,15.10
2018-09-13T19:50:34.704Z,15.10
2018-09-13T19:53:04.070Z,15.10
2018-09-13T19:55:33.204Z,15.10
2018-09-13T19:58:02.220Z,15.00
2018-09-13T20:00:31.533Z,15.00
2018-09-13T20:03:00.560Z,15.00
2018-09-13T20:05:30.071Z,15.00
2018-09-13T20:07:59.155Z,14.90
2018-09-13T20:10:28.319Z,14.90
2018-09-13T20:12:57.304Z,14.90
2018-09-13T20:15:26.569Z,14.90
2018-09-13T20:17:55.788Z,14.90
2018-09-13T20:20:25.079Z,14.90
2018-09-13T20:22:54.272Z,14.90
2018-09-13T20:25:23.646Z,14.80
2018-09-13T20:27:53.149Z,14.80
2018-09-13T20:30:22.745Z,14.80
2018-09-13T20:32:51.709Z,14.80
2018-09-13T20:35:20.806Z,14.80
2018-09-13T20:37:50.264Z,14.70
2018-09-13T20:40:19.697Z,14.70
2018-09-13T20:42:49.380Z,14.70
2018-09-13T20:45:18.625Z,14.60
2018-09-13T20:47:48.101Z,14.60
2018-09-13T20:50:17.570Z,14.60
2018-09-13T20:52:47.509Z,14.60
2018-09-13T20:55:16.789Z,14.50
2018-09-13T20:57:46.077Z,14.50
2018-09-13T21:00:18.400Z,14.50
2018-09-13T21:02:48.962Z,14.50
2018-09-13T21:05:18.611Z,14.40
2018-09-13T21:07:47.576Z,14.50
2018-09-13T21:10:16.910Z,14.40
2018-09-13T21:12:46.181Z,14.40
2018-09-13T21:15:15.506Z,14.40
2018-09-13T21:17:44.805Z,14.30
2018-09-13T21:20:14.137Z,14.30
2018-09-13T21:22:43.412Z,14.20
2018-09-13T21:25:12.609Z,14.20
2018-09-13T21:27:41.537Z,14.20
2018-09-13T21:30:11.107Z,14.20
2018-09-13T21:32:40.533Z,14.20
2018-09-13T21:35:09.514Z,14.20
2018-09-13T21:37:39.494Z,14.10
2018-09-13T21:40:09.120Z,14.10
2018-09-13T21:42:38.517Z,14.10
2018-09-13T21:45:07.725Z,14.10
2018-09-13T21:47:37.326Z,14.20
2018-09-13T21:50:06.810Z,14.10
2018-09-13T21:52:36.085Z,14.10
2018-09-13T21:55:05.190Z,14.10
2018-09-13T21:57:34.789Z,14.10
2018-09-13T22:00:03.852Z,14.10
2018-09-13T22:02:33.661Z,14.00
2018-09-13T22:05:02.821Z,14.00
2018-09-13T22:07:31.944Z,14.00
2018-09-13T22:10:00.923Z,14.00
2018-09-13T22:12:29.891Z,14.00
2018-09-13T22:14:59.260Z,14.00
2018-09-13T22:17:29.246Z,14.00
2018-09-13T22:19:58.479Z,14.00
2018-09-13T22:22:27.399Z,14.00
2018-09-13T22:24:56.498Z,13.90
2018-09-13T22:27:25.852Z,13.90
2018-09-13T22:29:55.080Z,13.80
2018-09-13T22:32:24.078Z,13.80
2018-09-13T22:34:53.097Z,13.80
2018-09-13T22:37:22.388Z,13.80
2018-09-13T22:39:52.254Z,13.80
2018-09-13T22:42:21.182Z,13.80
2018-09-13T22:44:50.369Z,13.80
2018-09-13T22:47:19.590Z,13.80
2018-09-13T22:49:48.873Z,13.70
2018-09-13T22:52:17.901Z,13.70
2018-09-13T22:54:50.889Z,13.70
2018-09-13T22:57:20.457Z,13.60
2018-09-13T22:59:49.464Z,13.70
2018-09-13T23:02:18.752Z,13.60
2018-09-13T23:04:48.225Z,13.60
2018-09-13T23:07:17.649Z,13.60
2018-09-13T23:09:46.706Z,13.60
2018-09-13T23:12:15.594Z,13.50
2018-09-13T23:14:45.161Z,13.50
2018-09-13T23:17:14.495Z,13.50
2018-09-13T23:19:43.410Z,13.40
2018-09-13T23:22:12.457Z,13.40
2018-09-13T23:24:41.474Z,13.40
2018-09-13T23:27:10.926Z,13.40
2018-09-13T23:29:40.401Z,13.40
2018-09-13T23:32:09.571Z,13.40
2018-09-13T23:34:38.771Z,13.30
2018-09-13T23:37:07.934Z,13.30
2018-09-13T23:39:37.567Z,13.30
2018-09-13T23:42:06.728Z,13.30
2018-09-13T23:44:35.881Z,13.30
2018-09-13T23:47:05.190Z,13.30
2018-09-13T23:49:34.248Z,13.30
2018-09-13T23:52:03.161Z,13.20
2018-09-13T23:54:32.290Z,13.20
2018-09-13T23:57:01.549Z,13.30
2018-09-13T23:59:30.813Z,13.30
